Time;durP1;ratioP1;P1;durP2;ratioP2;P2;SDS_P1;SDS_P2;PMS_P1;PMS_P2;Temp;Humidity;BMP_temperature;BMP_pressure;BME280_temperature;BME280_humidity;BME280_pressure;Samples;Min_cycle;Max_cycle;Signal;HPM_P1;HPM_P2
2023/06/07 00:01:07;;;;;;;9.23;4.90;;;14.20;99.90;;;;;;5080501;28;20229;-57
2023/06/07 00:03:37;;;;;;;11.17;4.47;;;14.00;99.90;;;;;;5094105;28;20233;-57
2023/06/07 00:06:08;;;;;;;10.10;4.93;;;14.20;99.90;;;;;;5094372;28;20686;-57
2023/06/07 00:08:39;;;;;;;9.47;4.73;;;14.20;99.90;;;;;;5094463;28;20211;-57
2023/06/07 00:11:07;;;;;;;7.50;4.07;;;14.20;99.90;;;;;;5094613;28;20219;-58
2023/06/07 00:13:37;;;;;;;6.93;4.90;;;14.40;99.90;;;;;;5093702;28;20252;-58
2023/06/07 00:16:07;;;;;;;8.77;4.73;;;14.40;99.90;;;;;;5096495;28;20221;-58
2023/06/07 00:18:35;;;;;;;6.70;4.63;;;14.50;99.90;;;;;;5102649;28;20668;-57
2023/06/07 00:21:04;;;;;;;6.83;3.90;;;14.40;99.90;;;;;;5094537;28;20215;-57
2023/06/07 00:23:32;;;;;;;6.53;4.10;;;14.50;99.90;;;;;;5093848;28;20243;-58
2023/06/07 00:26:01;;;;;;;7.03;4.40;;;14.50;99.90;;;;;;5094214;28;20235;-57
2023/06/07 00:28:30;;;;;;;10.47;4.47;;;14.30;99.90;;;;;;5093966;28;20268;-57
2023/06/07 00:30:58;;;;;;;8.13;4.30;;;14.10;99.90;;;;;;5091837;28;20649;-57
2023/06/07 00:33:27;;;;;;;5.17;3.50;;;13.80;99.90;;;;;;5094230;28;20227;-58
2023/06/07 00:35:55;;;;;;;6.03;3.90;;;13.70;99.90;;;;;;5094217;28;20577;-57
2023/06/07 00:38:24;;;;;;;4.30;2.73;;;13.90;99.90;;;;;;5093952;28;20254;-58
2023/06/07 00:40:52;;;;;;;6.17;3.30;;;13.90;99.90;;;;;;5093908;28;20219;-57
2023/06/07 00:43:20;;;;;;;9.03;4.10;;;13.90;99.90;;;;;;5075945;28;20261;-57
2023/06/07 00:45:48;;;;;;;6.77;4.07;;;14.00;99.90;;;;;;5072194;28;20235;-57
2023/06/07 00:48:16;;;;;;;6.53;3.93;;;13.90;99.90;;;;;;5105124;28;20291;-58
2023/06/07 00:50:47;;;;;;;3.80;3.47;;;13.80;99.90;;;;;;5092961;28;20250;-57
2023/06/07 00:53:15;;;;;;;5.20;3.43;;;13.80;99.90;;;;;;5088628;28;20234;-58
2023/06/07 00:55:43;;;;;;;5.53;4.00;;;13.80;99.90;;;;;;5093654;28;20768;-57
2023/06/07 00:58:12;;;;;;;5.40;4.30;;;13.80;99.90;;;;;;5093956;28;20233;-58
2023/06/07 01:00:41;;;;;;;5.40;3.77;;;13.60;99.90;;;;;;5064642;28;20238;-58
2023/06/07 01:03:09;;;;;;;5.20;3.70;;;13.60;99.90;;;;;;5093289;28;20264;-57
2023/06/07 01:05:37;;;;;;;4.87;3.73;;;13.50;99.90;;;;;;5091795;28;20287;-58
2023/06/07 01:08:07;;;;;;;4.93;3.87;;;13.60;99.90;;;;;;5085403;28;20229;-57
2023/06/07 01:10:37;;;;;;;3.73;3.10;;;13.60;99.90;;;;;;5075467;28;20218;-57
2023/06/07 01:13:08;;;;;;;4.53;3.13;;;13.80;99.90;;;;;;5075455;28;20222;-57
2023/06/07 01:15:38;;;;;;;6.70;3.43;;;13.70;99.90;;;;;;5073828;28;20310;-57
2023/06/07 01:18:09;;;;;;;3.80;3.50;;;13.50;99.90;;;;;;5097567;28;20293;-58
2023/06/07 01:20:39;;;;;;;5.47;4.03;;;13.50;99.90;;;;;;5093439;28;20219;-58
2023/06/07 01:23:14;;;;;;;5.70;3.97;;;13.60;99.90;;;;;;5084986;28;20234;-57
2023/06/07 01:25:44;;;;;;;8.20;4.03;;;13.40;99.90;;;;;;5079271;28;20323;-57
2023/06/07 01:28:14;;;;;;;4.00;3.47;;;13.50;99.90;;;;;;5098172;28;20218;-57
2023/06/07 01:30:42;;;;;;;7.80;4.60;;;13.60;99.90;;;;;;5095523;28;20321;-57
2023/06/07 01:33:12;;;;;;;6.23;4.30;;;13.60;99.90;;;;;;5097634;28;20234;-57
2023/06/07 01:35:41;;;;;;;7.47;4.43;;;13.40;99.90;;;;;;5097353;28;20301;-57
2023/06/07 01:38:14;;;;;;;8.03;4.20;;;13.50;99.90;;;;;;5079163;28;20321;-58
2023/06/07 01:40:44;;;;;;;8.27;4.47;;;13.30;99.90;;;;;;5079347;28;20324;-57
2023/06/07 01:43:16;;;;;;;8.97;5.30;;;13.00;99.90;;;;;;5097452;28;20644;-57
2023/06/07 01:45:46;;;;;;;6.17;4.77;;;13.20;99.90;;;;;;5091580;28;20328;-58
2023/06/07 01:48:15;;;;;;;7.87;4.73;;;13.50;99.90;;;;;;5090630;28;20229;-57
2023/06/07 01:50:43;;;;;;;8.60;4.50;;;13.50;99.90;;;;;;5079387;28;20324;-58
2023/06/07 01:53:11;;;;;;;6.93;4.53;;;13.60;99.90;;;;;;5095624;28;20246;-58
2023/06/07 01:55:39;;;;;;;6.03;4.27;;;13.80;99.90;;;;;;5097244;28;20217;-58
2023/06/07 01:58:21;;;;;;;7.80;4.27;;;13.80;99.90;;;;;;5097481;28;20578;-57
2023/06/07 02:00:58;;;;;;;7.13;4.77;;;13.80;99.90;;;;;;5077066;28;20237;-58
2023/06/07 02:03:32;;;;;;;7.07;4.70;;;13.80;99.90;;;;;;5097134;28;20218;-57
2023/06/07 02:06:03;;;;;;;8.17;4.57;;;13.90;99.90;;;;;;5069217;28;20233;-58
2023/06/07 02:08:33;;;;;;;8.73;4.30;;;13.60;99.90;;;;;;5092269;28;20300;-57
2023/06/07 02:11:03;;;;;;;6.93;4.27;;;13.60;99.90;;;;;;5078717;28;20245;-57
2023/06/07 02:13:35;;;;;;;8.93;4.37;;;13.80;99.90;;;;;;5096913;28;20219;-58
2023/06/07 02:16:04;;;;;;;8.13;4.17;;;13.70;99.90;;;;;;5094734;28;20217;-58
2023/06/07 02:18:36;;;;;;;7.07;4.33;;;13.80;99.90;;;;;;5087541;28;20233;-57
2023/06/07 02:21:05;;;;;;;9.13;4.50;;;13.60;99.90;;;;;;5079128;28;20734;-58
2023/06/07 02:23:33;;;;;;;8.47;4.83;;;13.60;99.90;;;;;;5096627;28;20258;-58
2023/06/07 02:26:02;;;;;;;8.63;4.70;;;13.50;99.90;;;;;;5097141;28;20249;-58
2023/06/07 02:28:30;;;;;;;11.73;4.90;;;13.40;99.90;;;;;;5096643;28;20242;-58
2023/06/07 02:31:01;;;;;;;8.07;4.07;;;13.50;99.90;;;;;;5094557;28;20708;-58
2023/06/07 02:33:29;;;;;;;7.10;4.10;;;13.40;99.90;;;;;;5096152;28;20218;-58
2023/06/07 02:35:57;;;;;;;6.20;4.10;;;13.20;99.90;;;;;;5095599;28;20565;-58
2023/06/07 02:38:25;;;;;;;4.93;3.93;;;13.40;99.90;;;;;;5096259;28;20233;-58
2023/06/07 02:40:55;;;;;;;6.63;3.70;;;13.40;99.90;;;;;;5078551;28;20225;-58
2023/06/07 02:43:25;;;;;;;8.03;3.90;;;13.50;99.90;;;;;;5070925;28;20254;-58
2023/06/07 02:45:53;;;;;;;4.67;3.20;;;13.40;99.90;;;;;;5074132;28;20333;-58
2023/06/07 02:48:23;;;;;;;5.20;3.10;;;13.30;99.90;;;;;;5104683;28;20235;-57
2023/06/07 02:50:51;;;;;;;5.23;4.00;;;13.30;99.90;;;;;;5096438;28;20754;-58
2023/06/07 02:53:20;;;;;;;6.07;4.00;;;13.40;99.90;;;;;;5078308;28;20324;-57
2023/06/07 02:55:49;;;;;;;6.77;4.30;;;13.30;99.90;;;;;;5078024;28;20218;-58
2023/06/07 02:58:17;;;;;;;5.43;3.87;;;13.30;99.90;;;;;;5077917;28;20229;-57
2023/06/07 03:00:49;;;;;;;6.47;4.30;;;13.30;99.90;;;;;;5075719;28;20238;-58
2023/06/07 03:03:18;;;;;;;6.30;3.67;;;13.30;99.90;;;;;;5077672;28;20226;-57
2023/06/07 03:05:59;;;;;;;7.03;3.50;;;13.10;99.90;;;;;;5077646;28;20719;-57
2023/06/07 03:08:31;;;;;;;5.67;3.70;;;13.00;99.90;;;;;;5077511;28;20321;-58
2023/06/07 03:11:01;;;;;;;6.50;3.97;;;12.90;99.90;;;;;;5077686;28;20222;-58
2023/06/07 03:13:33;;;;;;;5.77;3.33;;;12.90;99.90;;;;;;5076499;28;20579;-57
2023/06/07 03:16:05;;;;;;;7.70;3.67;;;13.00;99.90;;;;;;5068781;28;20686;-57
2023/06/07 03:18:41;;;;;;;4.87;3.50;;;13.10;99.90;;;;;;5074144;28;20663;-58
2023/06/07 03:21:10;;;;;;;5.03;3.37;;;13.20;99.90;;;;;;5074148;28;20256;-58
2023/06/07 03:23:39;;;;;;;5.77;3.40;;;13.20;99.90;;;;;;5069327;28;20249;-57
2023/06/07 03:26:09;;;;;;;6.23;3.60;;;13.20;99.90;;;;;;5077144;28;20696;-57
2023/06/07 03:28:38;;;;;;;8.03;4.10;;;13.10;99.90;;;;;;5095562;28;20218;-58
2023/06/07 03:31:07;;;;;;;7.63;4.53;;;13.10;99.90;;;;;;5075667;28;20226;-58
2023/06/07 03:33:48;;;;;;;6.37;4.03;;;13.20;99.90;;;;;;5077374;28;20225;-57
2023/06/07 03:36:20;;;;;;;5.60;3.83;;;13.40;99.90;;;;;;5077161;28;20229;-57
2023/06/07 03:38:50;;;;;;;7.93;4.53;;;13.50;99.90;;;;;;5077304;28;20578;-57
2023/06/07 03:41:18;;;;;;;4.70;3.63;;;13.60;99.90;;;;;;5095672;28;20297;-58
2023/06/07 03:43:46;;;;;;;6.90;3.53;;;13.60;99.90;;;;;;5077233;28;20291;-58
2023/06/07 03:46:15;;;;;;;6.23;3.60;;;13.60;99.90;;;;;;5068552;28;20705;-57
2023/06/07 03:48:44;;;;;;;6.23;4.00;;;13.40;99.90;;;;;;5076044;28;20237;-59
2023/06/07 03:51:12;;;;;;;9.33;4.33;;;13.50;99.90;;;;;;5069342;28;20225;-57
2023/06/07 03:53:41;;;;;;;5.47;4.07;;;13.50;99.90;;;;;;5076896;28;20230;-57
2023/06/07 03:56:10;;;;;;;7.43;4.67;;;13.30;99.90;;;;;;5077066;28;20225;-58
2023/06/07 03:58:39;;;;;;;6.90;3.80;;;13.10;99.90;;;;;;5094587;28;20688;-58
2023/06/07 04:01:12;;;;;;;7.13;4.13;;;12.90;99.90;;;;;;5074819;28;20708;-57
2023/06/07 04:03:40;;;;;;;6.40;4.00;;;13.10;99.90;;;;;;5094105;28;20225;-58
2023/06/07 04:06:09;;;;;;;5.17;3.53;;;13.20;99.90;;;;;;5074857;28;20222;-57
2023/06/07 04:08:39;;;;;;;6.03;3.50;;;13.40;99.90;;;;;;5076405;28;20230;-57
2023/06/07 04:11:10;;;;;;;6.77;4.07;;;13.60;99.90;;;;;;5076510;28;20763;-58
2023/06/07 04:13:39;;;;;;;8.83;4.57;;;13.70;99.90;;;;;;5062947;28;20227;-57
2023/06/07 04:16:08;;;;;;;6.27;4.40;;;13.70;99.90;;;;;;5057302;28;20223;-57
2023/06/07 04:18:36;;;;;;;8.43;4.50;;;13.40;99.90;;;;;;5076201;28;20235;-58
2023/06/07 04:21:06;;;;;;;6.43;4.90;;;13.30;99.90;;;;;;5076364;28;20229;-57
2023/06/07 04:23:34;;;;;;;6.03;5.00;;;13.20;99.90;;;;;;5075949;28;20255;-57
2023/06/07 04:26:06;;;;;;;10.33;5.30;;;13.50;99.90;;;;;;5076050;28;20230;-57
2023/06/07 04:28:36;;;;;;;7.73;5.10;;;13.40;99.90;;;;;;5076049;28;20240;-58
2023/06/07 04:31:07;;;;;;;9.60;4.80;;;13.50;99.90;;;;;;5074370;28;20257;-57
2023/06/07 04:33:37;;;;;;;8.20;5.10;;;13.50;99.90;;;;;;5075874;28;20247;-58
2023/06/07 04:36:08;;;;;;;10.00;6.20;;;13.60;99.90;;;;;;5092529;28;20221;-57
2023/06/07 04:38:41;;;;;;;12.17;5.67;;;13.60;99.90;;;;;;5075694;28;20256;-57
2023/06/07 04:41:30;;;;;;;13.77;6.47;;;13.70;99.90;;;;;;5094240;28;20222;-58
2023/06/07 04:44:01;;;;;;;11.03;5.80;;;13.80;99.90;;;;;;5075707;28;20226;-58
2023/06/07 04:46:33;;;;;;;7.97;5.13;;;13.60;99.90;;;;;;5074858;28;20259;-58
2023/06/07 04:49:01;;;;;;;10.53;5.97;;;13.60;99.90;;;;;;5087855;28;20214;-57
2023/06/07 04:51:30;;;;;;;10.80;5.87;;;13.60;99.90;;;;;;5093525;28;20229;-58
2023/06/07 04:54:04;;;;;;;13.70;6.20;;;13.50;99.90;;;;;;5075693;28;20308;-57
2023/06/07 04:56:38;;;;;;;14.00;5.93;;;13.50;99.90;;;;;;5075517;28;20253;-57
2023/06/07 04:59:08;;;;;;;10.43;5.90;;;13.40;99.90;;;;;;5075031;28;20279;-57
2023/06/07 05:01:38;;;;;;;11.33;5.97;;;13.40;99.90;;;;;;5073561;28;20237;-58
2023/06/07 05:04:07;;;;;;;10.70;5.93;;;13.40;99.90;;;;;;5085187;28;20308;-57
2023/06/07 05:06:42;;;;;;;12.00;5.83;;;13.50;99.90;;;;;;5070685;28;20229;-57
2023/06/07 05:09:10;;;;;;;12.37;6.03;;;13.50;99.90;;;;;;5093584;28;20745;-58
2023/06/07 05:11:39;;;;;;;13.43;6.53;;;13.50;99.90;;;;;;5093592;28;20236;-57
2023/06/07 05:14:08;;;;;;;10.93;6.10;;;13.60;99.90;;;;;;5075075;28;20691;-57
2023/06/07 05:16:38;;;;;;;12.77;6.70;;;13.70;99.90;;;;;;5072698;28;20222;-58
2023/06/07 05:19:10;;;;;;;15.73;6.87;;;13.80;99.90;;;;;;5088656;28;20223;-57
2023/06/07 05:21:42;;;;;;;14.67;6.27;;;13.80;99.90;;;;;;5086692;28;20675;-56
2023/06/07 05:24:11;;;;;;;13.30;6.00;;;13.70;99.90;;;;;;5071698;28;20223;-58
2023/06/07 05:26:42;;;;;;;16.63;6.50;;;13.70;99.90;;;;;;5084071;28;20210;-57
2023/06/07 05:29:12;;;;;;;14.47;6.60;;;13.90;99.90;;;;;;5084065;28;20718;-57
2023/06/07 05:31:40;;;;;;;16.00;6.67;;;13.90;99.90;;;;;;5064674;28;20234;-57
2023/06/07 05:34:09;;;;;;;17.40;7.17;;;13.80;99.90;;;;;;5066218;28;20246;-58
2023/06/07 05:36:39;;;;;;;14.17;6.83;;;14.00;99.90;;;;;;5081153;28;20690;-57
2023/06/07 05:39:07;;;;;;;14.10;6.07;;;14.40;99.90;;;;;;5056452;28;20269;-57
2023/06/07 05:41:37;;;;;;;17.40;6.60;;;14.50;99.90;;;;;;5075566;28;20703;-57
2023/06/07 05:44:05;;;;;;;10.63;5.67;;;14.90;99.90;;;;;;5054648;28;20273;-57
2023/06/07 05:46:36;;;;;;;13.77;6.40;;;15.00;99.90;;;;;;5057440;28;20222;-57
2023/06/07 05:49:04;;;;;;;15.13;6.10;;;15.40;99.90;;;;;;5081091;28;20648;-57
2023/06/07 05:51:36;;;;;;;12.53;5.43;;;15.60;99.90;;;;;;5071732;28;20774;-57
2023/06/07 05:54:06;;;;;;;14.93;5.60;;;16.00;99.90;;;;;;5081210;28;20622;-56
2023/06/07 05:56:36;;;;;;;12.53;4.97;;;16.30;99.90;;;;;;5071555;28;20705;-58
2023/06/07 05:59:04;;;;;;;13.77;5.07;;;16.50;99.90;;;;;;5060560;28;20786;-58
2023/06/07 06:01:34;;;;;;;12.63;4.80;;;16.70;99.90;;;;;;5061178;28;20284;-57
2023/06/07 06:04:04;;;;;;;18.47;5.53;;;17.00;99.90;;;;;;5062315;28;20282;-57
2023/06/07 06:06:32;;;;;;;14.70;4.73;;;17.20;99.90;;;;;;5060031;28;20237;-58
2023/06/07 06:09:00;;;;;;;16.43;4.80;;;17.40;99.90;;;;;;5062455;28;20586;-58
2023/06/07 06:11:28;;;;;;;13.00;4.40;;;17.60;99.90;;;;;;5063308;28;20906;-57
2023/06/07 06:13:57;;;;;;;12.23;4.77;;;17.80;99.90;;;;;;5065576;28;20732;-58
2023/06/07 06:16:25;;;;;;;10.93;4.00;;;17.90;99.90;;;;;;5063760;28;20238;-57
2023/06/07 06:18:53;;;;;;;14.20;5.20;;;18.00;99.90;;;;;;5064521;28;20759;-57
2023/06/07 06:21:23;;;;;;;12.13;4.33;;;18.20;99.90;;;;;;5064546;28;20220;-57
2023/06/07 06:23:51;;;;;;;13.67;5.43;;;18.20;99.90;;;;;;5064229;28;20250;-56
2023/06/07 06:26:22;;;;;;;12.20;4.43;;;17.90;99.90;;;;;;5063074;28;20306;-57
2023/06/07 06:28:50;;;;;;;10.10;4.00;;;18.10;99.90;;;;;;5065713;28;20230;-57
2023/06/07 06:31:18;;;;;;;12.67;4.53;;;18.40;99.90;;;;;;5064495;28;20220;-58
2023/06/07 06:33:47;;;;;;;12.70;4.87;;;18.60;99.90;;;;;;5065900;28;20706;-58
2023/06/07 06:36:15;;;;;;;10.87;4.53;;;18.60;99.90;;;;;;5064456;28;20262;-58
2023/06/07 06:38:44;;;;;;;11.90;4.17;;;18.90;99.90;;;;;;5065178;28;20226;-60
2023/06/07 06:41:14;;;;;;;9.73;4.53;;;19.00;99.90;;;;;;5065611;28;20566;-61
2023/06/07 06:43:42;;;;;;;11.60;4.40;;;19.00;99.90;;;;;;5064556;28;20318;-61
2023/06/07 06:46:13;;;;;;;11.57;4.50;;;19.00;99.90;;;;;;5048826;28;20244;-60
2023/06/07 06:48:45;;;;;;;10.70;4.70;;;19.10;99.90;;;;;;5066970;28;20248;-61
2023/06/07 06:51:30;;;;;;;13.00;4.47;;;19.40;99.90;;;;;;5064926;28;20224;-59
2023/06/07 06:54:00;;;;;;;16.43;5.03;;;19.50;99.90;;;;;;5065308;28;20308;-59
2023/06/07 06:56:28;;;;;;;13.67;4.77;;;19.20;99.90;;;;;;5062501;28;20787;-57
2023/06/07 06:58:56;;;;;;;11.90;4.57;;;19.00;99.90;;;;;;5065007;28;20232;-61
2023/06/07 07:01:24;;;;;;;12.23;4.57;;;19.10;99.90;;;;;;5064576;28;20323;-61
2023/06/07 07:03:52;;;;;;;9.57;4.00;;;19.30;99.90;;;;;;5065785;28;20314;-61
2023/06/07 07:06:22;;;;;;;11.33;4.43;;;19.70;99.90;;;;;;5064658;28;20608;-61
2023/06/07 07:08:51;;;;;;;10.07;4.50;;;19.60;99.90;;;;;;5066433;28;20711;-61
2023/06/07 07:11:20;;;;;;;10.93;4.40;;;19.60;99.90;;;;;;5068052;28;20691;-61
2023/06/07 07:13:48;;;;;;;10.20;4.20;;;19.50;99.90;;;;;;5066151;28;20315;-61
2023/06/07 07:16:17;;;;;;;13.57;3.87;;;19.70;99.90;;;;;;5066607;28;20240;-61
2023/06/07 07:18:45;;;;;;;8.50;3.57;;;20.00;99.90;;;;;;5066419;28;20647;-59
2023/06/07 07:21:13;;;;;;;11.63;3.90;;;20.30;99.90;;;;;;5067635;28;20267;-61
2023/06/07 07:23:41;;;;;;;10.20;4.00;;;20.40;99.90;;;;;;5066599;28;20757;-57
2023/06/07 07:26:09;;;;;;;11.20;4.40;;;20.60;99.90;;;;;;5067587;28;20258;-61
2023/06/07 07:28:39;;;;;;;10.53;3.70;;;20.70;99.90;;;;;;5065510;28;20540;-61
2023/06/07 07:31:07;;;;;;;8.33;3.60;;;20.60;99.90;;;;;;5066270;28;20238;-61
2023/06/07 07:33:35;;;;;;;11.27;3.67;;;20.60;99.90;;;;;;5066725;28;20223;-59
2023/06/07 07:36:04;;;;;;;11.17;3.70;;;20.90;99.90;;;;;;5068113;28;20232;-61
2023/06/07 07:38:33;;;;;;;15.17;4.10;;;21.30;99.90;;;;;;5065464;28;21409;-61
2023/06/07 07:41:01;;;;;;;8.53;3.60;;;21.40;99.90;;;;;;5066429;28;20237;-61
2023/06/07 07:43:29;;;;;;;11.03;3.87;;;21.60;99.90;;;;;;5059964;28;20280;-61
2023/06/07 07:46:04;;;;;;;9.53;3.80;;;21.70;99.90;;;;;;5066205;28;20641;-61
2023/06/07 07:48:32;;;;;;;10.00;3.87;;;21.40;99.90;;;;;;5064994;28;20303;-62
2023/06/07 07:51:01;;;;;;;9.23;3.80;;;21.40;99.90;;;;;;5065256;28;20218;-62
2023/06/07 07:53:30;;;;;;;11.27;3.87;;;21.90;99.90;;;;;;5064490;28;20219;-62
2023/06/07 07:55:58;;;;;;;10.43;3.57;;;22.30;99.90;;;;;;5058905;28;20234;-60
2023/06/07 07:58:26;;;;;;;9.83;3.70;;;22.60;99.90;;;;;;5062536;28;20219;-58
2023/06/07 08:00:54;;;;;;;6.40;3.20;;;22.90;99.90;;;;;;5062916;28;20243;-60
2023/06/07 08:03:24;;;;;;;11.67;4.17;;;23.40;99.90;;;;;;5064524;28;20220;-60
2023/06/07 08:05:53;;;;;;;12.00;3.87;;;23.60;99.90;;;;;;5061778;28;20212;-62
2023/06/07 08:08:21;;;;;;;9.67;3.80;;;23.40;99.90;;;;;;5063092;28;20713;-61
2023/06/07 08:10:49;;;;;;;8.63;3.80;;;23.30;99.90;;;;;;5065043;28;20594;-60
2023/06/07 08:13:17;;;;;;;10.07;3.87;;;23.20;99.90;;;;;;5066819;28;20571;-62
2023/06/07 08:15:48;;;;;;;8.47;3.40;;;23.40;99.90;;;;;;5065017;28;20311;-61
2023/06/07 08:18:18;;;;;;;7.63;3.43;;;23.50;99.90;;;;;;5064615;28;20215;-61
2023/06/07 08:20:47;;;;;;;8.37;3.20;;;23.80;99.90;;;;;;5063250;28;20241;-62
2023/06/07 08:23:15;;;;;;;10.23;4.10;;;24.10;99.90;;;;;;5062881;28;20655;-60
2023/06/07 08:25:43;;;;;;;8.60;3.50;;;24.10;99.90;;;;;;5061815;28;20226;-62
2023/06/07 08:28:12;;;;;;;9.27;3.50;;;24.40;99.90;;;;;;5063512;28;20223;-62
2023/06/07 08:30:42;;;;;;;7.70;3.17;;;24.30;99.90;;;;;;5063884;28;20249;-62
2023/06/07 08:33:11;;;;;;;8.73;3.10;;;24.40;99.90;;;;;;5065863;28;20224;-62
2023/06/07 08:35:39;;;;;;;6.03;3.20;;;24.60;99.90;;;;;;5063838;28;20223;-62
2023/06/07 08:38:09;;;;;;;7.33;3.10;;;24.80;99.90;;;;;;5064980;28;20294;-62
2023/06/07 08:40:37;;;;;;;6.70;2.93;;;24.60;99.90;;;;;;5063990;28;20303;-62
2023/06/07 08:43:05;;;;;;;7.63;3.30;;;24.80;99.90;;;;;;5065079;28;20712;-61
2023/06/07 08:45:33;;;;;;;8.07;3.43;;;24.80;99.90;;;;;;5064445;28;20221;-62
2023/06/07 08:48:07;;;;;;;8.27;3.17;;;24.90;99.90;;;;;;5064098;28;20299;-62
2023/06/07 08:50:36;;;;;;;6.37;3.00;;;25.10;99.90;;;;;;5058179;28;20239;-61
2023/06/07 08:53:13;;;;;;;12.03;3.73;;;25.20;99.90;;;;;;5063764;28;20232;-62
2023/06/07 08:55:42;;;;;;;5.63;2.73;;;25.50;99.90;;;;;;5063469;28;20229;-62
2023/06/07 08:58:12;;;;;;;6.67;2.93;;;25.90;99.90;;;;;;5065127;28;20329;-62
2023/06/07 09:00:41;;;;;;;8.97;3.23;;;26.20;99.90;;;;;;5065984;28;20237;-62
2023/06/07 09:03:12;;;;;;;7.27;3.20;;;26.20;99.90;;;;;;5080422;28;20228;-62
2023/06/07 09:05:40;;;;;;;6.90;2.87;;;26.20;99.90;;;;;;5078343;28;20688;-62
2023/06/07 09:08:08;;;;;;;6.83;3.23;;;26.60;99.90;;;;;;5080195;28;20252;-62
2023/06/07 09:10:38;;;;;;;5.63;2.93;;;26.60;99.90;;;;;;5079864;28;20237;-62
2023/06/07 09:13:06;;;;;;;7.97;3.20;;;26.60;99.90;;;;;;5080105;28;20235;-59
2023/06/07 09:15:35;;;;;;;8.80;3.10;;;27.00;99.90;;;;;;5077623;28;20232;-62
2023/06/07 09:18:05;;;;;;;6.67;3.20;;;27.30;99.90;;;;;;5079379;28;20222;-62
2023/06/07 09:20:35;;;;;;;8.77;3.10;;;26.70;99.90;;;;;;5079451;28;20225;-62
2023/06/07 09:23:11;;;;;;;8.60;3.33;;;26.80;99.90;;;;;;5079831;28;21427;-61
2023/06/07 09:25:44;;;;;;;8.50;3.33;;;27.10;99.90;;;;;;5078482;28;20594;-62
2023/06/07 09:28:13;;;;;;;8.07;3.07;;;27.20;99.90;;;;;;5080354;28;20398;-62
2023/06/07 09:30:54;;;;;;;6.87;3.00;;;27.30;99.90;;;;;;5078811;28;20613;-58
2023/06/07 09:33:29;;;;;;;10.30;3.70;;;27.10;99.90;;;;;;5079774;28;20781;-62
2023/06/07 09:36:04;;;;;;;6.60;3.30;;;27.20;99.90;;;;;;5075958;28;20225;-60
2023/06/07 09:38:33;;;;;;;6.17;3.10;;;27.50;99.90;;;;;;5080304;28;20232;-62
2023/06/07 09:41:05;;;;;;;9.00;3.33;;;27.80;99.90;;;;;;5079922;28;20811;-62
2023/06/07 09:43:43;;;;;;;8.73;3.53;;;28.20;99.90;;;;;;5080811;28;20319;-62
2023/06/07 09:46:13;;;;;;;10.07;3.47;;;28.10;99.90;;;;;;5077133;28;20343;-59
2023/06/07 09:48:46;;;;;;;6.67;3.00;;;28.20;99.90;;;;;;5081383;28;20268;-59
2023/06/07 09:51:15;;;;;;;9.27;3.37;;;28.20;99.90;;;;;;5082585;28;20246;-57
2023/06/07 09:53:51;;;;;;;9.83;3.20;;;28.40;99.90;;;;;;5082894;28;20710;-57
2023/06/07 09:56:22;;;;;;;8.73;3.40;;;28.50;99.90;;;;;;5076434;28;20256;-57
2023/06/07 09:59:05;;;;;;;9.83;3.43;;;28.30;99.90;;;;;;5080906;28;20318;-57
2023/06/07 10:01:37;;;;;;;8.77;3.50;;;28.50;99.90;;;;;;5079760;28;20231;-57
2023/06/07 10:04:06;;;;;;;6.00;2.77;;;28.20;99.90;;;;;;5082062;28;20226;-58
2023/06/07 10:06:38;;;;;;;7.60;3.10;;;28.30;99.90;;;;;;5079777;28;20299;-59
2023/06/07 10:09:07;;;;;;;6.53;2.87;;;28.60;99.90;;;;;;5081324;28;20229;-58
2023/06/07 10:11:38;;;;;;;8.63;3.60;;;28.80;99.90;;;;;;5081142;28;20243;-57
2023/06/07 10:14:10;;;;;;;6.33;2.83;;;28.40;99.90;;;;;;5080288;28;20227;-57
2023/06/07 10:16:44;;;;;;;9.53;3.30;;;28.70;99.90;;;;;;5080814;28;20226;-58
2023/06/07 10:19:21;;;;;;;9.70;3.40;;;28.90;99.90;;;;;;5277979;22;20322;-60
2023/06/07 10:21:52;;;;;;;7.10;2.80;;;28.60;99.90;;;;;;5104567;28;20226;-62
2023/06/07 10:24:25;;;;;;;7.03;2.87;;;28.90;99.90;;;;;;5103403;28;20239;-61
2023/06/07 10:27:00;;;;;;;7.30;3.00;;;29.10;99.90;;;;;;5103955;28;20214;-60
2023/06/07 10:29:36;;;;;;;7.77;2.73;;;29.40;99.90;;;;;;5103920;28;20226;-59
2023/06/07 10:32:10;;;;;;;6.27;2.83;;;29.30;99.90;;;;;;5103552;28;20241;-62
2023/06/07 10:34:40;;;;;;;7.90;3.03;;;29.30;99.90;;;;;;5103333;28;20680;-61
2023/06/07 10:37:08;;;;;;;9.30;2.97;;;29.00;99.90;;;;;;5103959;28;20699;-59
2023/06/07 10:39:38;;;;;;;8.83;2.77;;;28.80;99.90;;;;;;5103939;28;20869;-61
2023/06/07 10:42:09;;;;;;;7.90;2.80;;;28.90;99.90;;;;;;5104039;28;20218;-62
2023/06/07 10:44:38;;;;;;;7.27;2.80;;;29.10;99.90;;;;;;5102923;28;20226;-61
2023/06/07 10:47:24;;;;;;;6.20;2.97;;;29.30;99.90;;;;;;5104065;28;20218;-61
2023/06/07 10:49:52;;;;;;;8.80;3.10;;;29.50;99.90;;;;;;5103852;28;20255;-62
2023/06/07 10:52:21;;;;;;;7.77;2.80;;;29.20;99.90;;;;;;5103304;28;20283;-62
2023/06/07 10:54:49;;;;;;;7.30;2.90;;;29.20;99.90;;;;;;5101990;28;20234;-61
2023/06/07 10:57:35;;;;;;;7.70;3.00;;;29.60;99.90;;;;;;5099990;28;20308;-61
2023/06/07 11:00:26;;;;;;;5.90;3.00;;;29.90;99.90;;;;;;5086837;28;20222;-61
2023/06/07 11:03:24;;;;;;;8.37;2.93;;;30.40;99.90;;;;;;5101307;28;20700;-61
2023/06/07 11:06:06;;;;;;;7.13;3.00;;;30.30;99.90;;;;;;5098430;27;20570;-62
2023/06/07 11:08:36;;;;;;;6.33;2.83;;;30.20;99.90;;;;;;5099821;28;20227;-62
2023/06/07 11:11:21;;;;;;;8.70;3.50;;;29.90;99.90;;;;;;5100554;28;20244;-61
2023/06/07 11:14:12;;;;;;;6.53;3.30;;;30.20;99.90;;;;;;5100392;28;20763;-61
2023/06/07 11:16:40;;;;;;;6.73;2.63;;;29.70;99.90;;;;;;5099473;28;20238;-62
2023/06/07 11:19:11;;;;;;;7.97;3.30;;;30.00;99.90;;;;;;5087820;28;20258;-62
2023/06/07 11:22:00;;;;;;;8.17;3.30;;;30.10;99.90;;;;;;5085828;28;20230;-62
2023/06/07 11:24:28;;;;;;;8.00;3.23;;;29.90;99.90;;;;;;5084180;28;20234;-61
2023/06/07 11:27:22;;;;;;;6.27;3.10;;;30.00;99.90;;;;;;5086115;28;20236;-60
2023/06/07 11:29:52;;;;;;;9.47;3.13;;;29.90;99.90;;;;;;5051618;28;20554;-60
2023/06/07 11:32:21;;;;;;;8.23;3.30;;;30.40;99.90;;;;;;5087171;28;20232;-61
2023/06/07 11:34:56;;;;;;;5.67;2.93;;;30.50;99.90;;;;;;5084773;28;20223;-62
2023/06/07 11:37:25;;;;;;;6.23;3.20;;;30.60;99.80;;;;;;5084364;28;20228;-59
2023/06/07 11:39:58;;;;;;;9.73;3.10;;;30.40;99.90;;;;;;5084255;28;20215;-62
2023/06/07 11:42:27;;;;;;;7.47;3.50;;;30.40;99.60;;;;;;5085966;28;20214;-62
2023/06/07 11:44:56;;;;;;;6.10;3.10;;;30.60;99.80;;;;;;5084371;28;20829;-61
2023/06/07 11:47:24;;;;;;;6.60;3.10;;;31.00;98.50;;;;;;5085228;28;20581;-61
2023/06/07 11:49:55;;;;;;;10.97;3.13;;;30.80;99.40;;;;;;5088063;28;20218;-61
2023/06/07 11:52:24;;;;;;;6.50;3.03;;;31.10;99.00;;;;;;5083968;28;20294;-61
2023/06/07 11:54:52;;;;;;;6.93;3.00;;;31.20;99.30;;;;;;5084284;28;20228;-60
2023/06/07 11:57:21;;;;;;;8.37;3.20;;;31.00;98.50;;;;;;5085525;28;20237;-59
2023/06/07 11:59:50;;;;;;;8.10;3.73;;;30.70;99.10;;;;;;5082951;28;21440;-59
2023/06/07 12:02:21;;;;;;;8.53;3.70;;;30.00;99.20;;;;;;5084277;28;20313;-61
2023/06/07 12:04:49;;;;;;;8.67;3.37;;;29.00;99.90;;;;;;5084402;28;20577;-61
2023/06/07 12:07:19;;;;;;;6.93;3.57;;;28.70;99.90;;;;;;5083601;28;20303;-61
2023/06/07 12:09:51;;;;;;;9.67;3.77;;;28.50;99.90;;;;;;5082870;28;20227;-62
2023/06/07 12:12:19;;;;;;;8.93;3.60;;;28.60;99.90;;;;;;5082908;28;20241;-62
2023/06/07 12:14:51;;;;;;;8.63;3.50;;;28.00;99.90;;;;;;5082410;28;20218;-61
2023/06/07 12:17:21;;;;;;;11.37;3.70;;;27.50;99.90;;;;;;5083382;28;20231;-61
2023/06/07 12:19:49;;;;;;;8.40;3.70;;;27.50;99.90;;;;;;5085420;28;20273;-61
2023/06/07 12:22:17;;;;;;;9.50;3.60;;;27.40;99.90;;;;;;5083521;28;20299;-60
2023/06/07 12:24:47;;;;;;;8.27;3.40;;;27.50;99.90;;;;;;5083776;28;20218;-61
2023/06/07 12:27:16;;;;;;;7.63;3.40;;;27.30;99.90;;;;;;5083634;28;20316;-61
2023/06/07 12:29:45;;;;;;;8.83;3.50;;;27.30;99.90;;;;;;5078126;28;20316;-62
2023/06/07 12:32:13;;;;;;;10.53;4.20;;;26.90;99.90;;;;;;5083113;28;20261;-59
2023/06/07 12:34:45;;;;;;;11.20;3.93;;;26.40;99.90;;;;;;5081613;28;20234;-62
2023/06/07 12:37:13;;;;;;;8.20;3.73;;;25.90;99.90;;;;;;5081735;28;20332;-61
2023/06/07 12:39:42;;;;;;;10.97;3.90;;;26.00;99.90;;;;;;5081437;28;20313;-60
2023/06/07 12:42:10;;;;;;;7.13;4.20;;;26.20;99.90;;;;;;5083301;28;20233;-62
2023/06/07 12:44:38;;;;;;;8.77;3.63;;;26.30;99.90;;;;;;5080947;28;20228;-62
2023/06/07 12:47:08;;;;;;;11.07;4.00;;;26.30;99.90;;;;;;5082570;28;20236;-61
2023/06/07 12:49:36;;;;;;;11.80;4.43;;;26.20;99.90;;;;;;5083941;28;20633;-61
2023/06/07 12:52:07;;;;;;;10.00;4.10;;;26.30;99.90;;;;;;5080536;28;20222;-61
2023/06/07 12:54:35;;;;;;;11.23;4.20;;;25.80;99.90;;;;;;5082988;28;20217;-60
2023/06/07 12:57:03;;;;;;;7.67;3.90;;;25.70;99.90;;;;;;5079925;28;20241;-61
2023/06/07 12:59:34;;;;;;;10.23;3.90;;;25.90;99.90;;;;;;5082879;28;20272;-61